page 5717 of 1010108 registered users

eBook PostsUsers

  1. 0tramp21spoon registered @ 2013-01-31 09:14:41, last login @ 2013-01-31 09:14:41
  2. 0karenarch25 registered @ 2013-01-31 09:14:59, last login @ 2013-01-31 09:56:18
  3. 0Jeana876 registered @ 2013-01-31 09:15:53, last login @ 2013-01-31 09:15:53
  4. 0canoeport52 registered @ 2013-01-31 09:16:22, last login @ 2013-01-31 09:16:22
  5. 0bridge8napkin registered @ 2013-01-31 09:16:23, last login @ 2013-01-31 09:16:23
  6. 0hockey28wheel registered @ 2013-01-31 09:16:53, last login @ 2013-01-31 09:57:08
  7. 0touchgander02 registered @ 2013-01-31 09:16:53, last login @ 2013-01-31 09:16:53
  8. 0weeder16law registered @ 2013-01-31 09:17:02, last login @ 2013-01-31 09:58:11
  9. 0boxtower76 registered @ 2013-01-31 09:17:03, last login @ 2013-01-31 09:17:03
  10. 0yogurt1wealth registered @ 2013-01-31 09:17:04, last login @ 2013-01-31 09:17:04
  11. 0ash0rotate registered @ 2013-01-31 09:17:05, last login @ 2013-01-31 09:17:05
  12. 0greecepath09 registered @ 2013-01-31 09:19:43, last login @ 2013-01-31 09:19:43
  13. 0gemini94bulb registered @ 2013-01-31 09:20:00, last login @ 2013-01-31 09:20:00
  14. 0greecespider16 registered @ 2013-01-31 09:20:41, last login @ 2013-01-31 09:20:41
  15. 0doctor4horn registered @ 2013-01-31 09:21:22, last login @ 2013-01-31 09:21:22
  16. 0owner4base registered @ 2013-01-31 09:24:31, last login @ 2013-01-31 09:50:48
  17. 0sphere08polo registered @ 2013-01-31 09:26:00, last login @ 2013-01-31 09:26:00
  18. 0honeyvein5 registered @ 2013-01-31 09:26:00, last login @ 2013-01-31 09:26:00
  19. 0marbleclover2 registered @ 2013-01-31 09:27:03, last login @ 2013-01-31 09:27:03
  20. 0punchtrunk4 registered @ 2013-01-31 09:28:37, last login @ 2013-01-31 09:28:37
  21. 0novelpull5 registered @ 2013-01-31 09:29:46, last login @ 2013-01-31 09:29:46
  22. 0clubpaul66 registered @ 2013-01-31 09:30:06, last login @ 2013-01-31 09:30:06
  23. 0spot5puma registered @ 2013-01-31 09:30:22, last login @ 2013-01-31 09:30:22
  24. 0bead2art registered @ 2013-01-31 09:30:44, last login @ 2013-01-31 09:30:44
  25. 0manxwing3 registered @ 2013-01-31 09:31:28, last login @ 2013-01-31 09:31:28
  26. 0climblimit9 registered @ 2013-01-31 09:31:52, last login @ 2013-01-31 09:31:52
  27. 0legalsampan62 registered @ 2013-01-31 09:32:03, last login @ 2013-01-31 09:32:03
  28. 0friday33rayon registered @ 2013-01-31 09:33:36, last login @ 2013-01-31 09:33:36
  29. 0punchchest8 registered @ 2013-01-31 09:33:48, last login @ 2013-01-31 09:33:48
  30. 0Odenisle registered @ 2013-01-31 09:34:31, last login @ 2013-01-31 09:34:31
  31. 0list0sack registered @ 2013-01-31 09:34:36, last login @ 2013-01-31 09:34:36
  32. 0augustgrowth2 registered @ 2013-01-31 09:35:09, last login @ 2013-01-31 09:35:09
  33. 0cymbal87smell registered @ 2013-01-31 09:35:21, last login @ 2013-01-31 09:35:21
  34. 0quilluganda7 registered @ 2013-01-31 09:36:00, last login @ 2013-01-31 09:36:00
  35. 0holecloth2 registered @ 2013-01-31 09:37:21, last login @ 2013-01-31 09:37:21
  36. 0mall9whale registered @ 2013-01-31 09:38:41, last login @ 2013-01-31 09:38:41
  37. 0yak3jury registered @ 2013-01-31 09:38:49, last login @ 2013-01-31 09:38:49
  38. 0wdtlq2 registered @ 2013-01-31 09:39:29, last login @ 2013-01-31 09:39:29
  39. 0powertempo0 registered @ 2013-01-31 09:39:39, last login @ 2013-01-31 09:39:39
  40. 0chimebucket7 registered @ 2013-01-31 09:39:48, last login @ 2013-01-31 09:39:48
  41. 0railactive9 registered @ 2013-01-31 09:40:12, last login @ 2013-01-31 09:40:12
  42. 0honey9sugar registered @ 2013-01-31 09:41:38, last login @ 2013-01-31 09:41:38
  43. 0lycra7orange registered @ 2013-01-31 09:42:09, last login @ 2013-01-31 09:42:09
  44. 0scaleblade4 registered @ 2013-01-31 09:42:10, last login @ 2013-01-31 09:42:10
  45. 0debtorstove94 registered @ 2013-01-31 09:43:21, last login @ 2013-01-31 09:43:21
  46. 0stephip67 registered @ 2013-01-31 09:43:37, last login @ 2013-01-31 09:43:37
  47. 0nationrat2 registered @ 2013-01-31 09:43:42, last login @ 2013-01-31 09:43:42
  48. 0save78path registered @ 2013-01-31 09:43:43, last login @ 2013-01-31 09:43:43
  49. 0cubowner79 registered @ 2013-01-31 09:44:28, last login @ 2013-01-31 09:44:28
  50. 0sleetneck5 registered @ 2013-01-31 09:44:38, last login @ 2013-01-31 09:44:38
  51. 0outputcheese7 registered @ 2013-01-31 09:44:40, last login @ 2013-01-31 09:44:40
  52. 0magicform3 registered @ 2013-01-31 09:45:09, last login @ 2013-01-31 09:45:09
  53. 0second96active registered @ 2013-01-31 09:45:48, last login @ 2013-01-31 09:45:48
  54. 0tianbaoguangjie registered @ 2013-01-31 09:46:36, last login @ 2013-01-31 09:49:02
  55. 0prose06pastor registered @ 2013-01-31 09:47:11, last login @ 2013-01-31 09:47:11
  56. 0brace7output registered @ 2013-01-31 09:47:13, last login @ 2013-01-31 09:47:13
  57. 0beretorder9 registered @ 2013-01-31 09:48:12, last login @ 2013-01-31 09:48:12
  58. 0dream61sleet registered @ 2013-01-31 09:48:50, last login @ 2013-01-31 09:48:50
  59. 0lauratanker5 registered @ 2013-01-31 09:49:41, last login @ 2013-01-31 09:49:41
  60. 0camera0white registered @ 2013-01-31 09:49:51, last login @ 2013-01-31 09:49:51
  61. 0airbusneed86 registered @ 2013-01-31 09:49:57, last login @ 2013-01-31 09:49:57
  62. 0danjustice511 registered @ 2013-01-31 09:51:03, last login @ 2013-01-31 09:51:03
  63. 0leekcafe90 registered @ 2013-01-31 09:53:59, last login @ 2013-01-31 09:53:59
  64. 0glider8chance registered @ 2013-01-31 09:54:07, last login @ 2013-01-31 09:54:07
  65. 0cobwebcloud6 registered @ 2013-01-31 09:55:19, last login @ 2013-01-31 09:55:19
  66. 0pairstring2 registered @ 2013-01-31 09:55:58, last login @ 2013-01-31 09:55:58
  67. 0kevinhall74 registered @ 2013-01-31 09:56:51, last login @ 2013-01-31 09:56:51
  68. 0animeticket63 registered @ 2013-01-31 09:57:03, last login @ 2013-01-31 09:57:03
  69. 0mobilecredit941 registered @ 2013-01-31 09:57:57, last login @ 2013-01-31 09:57:57
  70. 0ankleoyster16 registered @ 2013-01-31 09:58:47, last login @ 2013-01-31 09:58:47
  71. 0taiwanclient8 registered @ 2013-01-31 10:00:24, last login @ 2013-01-31 10:00:24
  72. 0hyenawatch24 registered @ 2013-01-31 10:00:25, last login @ 2013-01-31 10:00:25
  73. 0bufferstudy79 registered @ 2013-01-31 10:00:34, last login @ 2013-01-31 10:00:34
  74. 0dirt0quart registered @ 2013-01-31 10:01:04, last login @ 2013-01-31 10:01:04
  75. 0town83beer registered @ 2013-01-31 10:02:33, last login @ 2013-01-31 10:02:33
  76. 0zinc8dew registered @ 2013-01-31 10:02:55, last login @ 2013-01-31 10:02:55
  77. 0bell18border registered @ 2013-01-31 10:03:29, last login @ 2013-01-31 10:03:29
  78. 0lindaskiing77 registered @ 2013-01-31 10:04:13, last login @ 2013-01-31 10:04:13
  79. 0kidneytyvek2 registered @ 2013-01-31 10:05:06, last login @ 2013-01-31 10:18:11
  80. 0priesttailor4 registered @ 2013-01-31 10:05:38, last login @ 2013-01-31 10:05:38
  81. 0roof9actor registered @ 2013-01-31 10:08:26, last login @ 2013-01-31 10:08:26
  82. 0greasepolish1 registered @ 2013-01-31 10:08:43, last login @ 2013-01-31 10:08:43
  83. 0berrycarol4 registered @ 2013-01-31 10:09:15, last login @ 2013-01-31 10:09:15
  84. 0bladediving56 registered @ 2013-01-31 10:09:27, last login @ 2013-01-31 10:09:27
  85. 0subwaylinda15 registered @ 2013-01-31 10:10:08, last login @ 2013-01-31 10:10:08
  86. 0lungewave7 registered @ 2013-01-31 10:10:23, last login @ 2013-01-31 10:10:23
  87. 0notify3drink registered @ 2013-01-31 10:10:55, last login @ 2013-01-31 10:24:45
  88. 0ephriambrobe1129 registered @ 2013-01-31 10:11:13, last login @ 2013-01-31 10:11:13
  89. 0stampraft07 registered @ 2013-01-31 10:12:15, last login @ 2013-01-31 10:53:09
  90. 0soncoal9 registered @ 2013-01-31 10:13:24, last login @ 2013-01-31 10:54:05
  91. 0drink7karen registered @ 2013-01-31 10:13:35, last login @ 2013-01-31 10:13:35
  92. 0throatbeetle5 registered @ 2013-01-31 10:13:42, last login @ 2013-01-31 10:13:42
  93. 0breath6skate registered @ 2013-01-31 10:13:53, last login @ 2013-01-31 10:59:02
  94. 0dimejaw42 registered @ 2013-01-31 10:14:55, last login @ 2013-01-31 10:14:55
  95. 0tankersign42 registered @ 2013-01-31 10:14:58, last login @ 2013-01-31 10:14:58
  96. 0school0rain registered @ 2013-01-31 10:15:35, last login @ 2013-01-31 10:15:35
  97. 0touchhen1 registered @ 2013-01-31 10:15:39, last login @ 2013-01-31 10:55:08
  98. 0pumafox66 registered @ 2013-01-31 10:16:13, last login @ 2013-01-31 10:16:13
  99. 0goat12brand registered @ 2013-01-31 10:16:25, last login @ 2013-01-31 10:16:25
  100. 0townpickle91 registered @ 2013-01-31 10:16:45, last login @ 2013-01-31 10:16:45
  101. 0mother38park registered @ 2013-01-31 10:16:48, last login @ 2013-01-31 10:16:48

More...

[5727] [5726] [5725] [5724] [5723] [5722] [5721] [5720] [5719] [5718] [5717] [5716] [5715] [5714] [5713] [5712] [5711] [5710] [5709] [5708] ...[1]
Back to Top